YAUG weather

Augusta Airport
Western Australia, Australia

Public forecast

Using degrees Celsius for public forecast. Weather courtesy of forecast.io.

Closest aviation weather report (METAR) to Augusta Airport

Closest report is Albany Airport, 135.8 nm (251.5 km) ESE. Retrieved 2019/12/12 00:00 UTC (26 minutes ago):

YABA 120000Z 07011KT CAVOK 21/12 Q1023

Closest aviation forecast (TAF) to Augusta Airport

Forecast is more than 12 hours old.

Closest forecast is Perth Jandakot Airport, 141.1 nm (261.3 km) NNE. Retrieved 2019/12/10 18:00 UTC (1 day ago):

TAF YPJT 101640Z 1018/1112 10020G35KT CAVOK FM110400 13012KT CAVOK